sensor_id;sensor_type;location;lat;lon;timestamp;temperature;humidity
6484;DHT22;3275;52.376;9.694;2023-08-07T19:37:21;15.60;99.90
6484;DHT22;3275;52.376;9.694;2023-08-07T19:39:49;15.50;99.90
6484;DHT22;3275;52.376;9.694;2023-08-07T19:42:16;15.50;99.90
6484;DHT22;3275;52.376;9.694;2023-08-07T19:44:43;15.50;99.90
6484;DHT22;3275;52.376;9.694;2023-08-07T19:47:10;15.50;99.90
6484;DHT22;3275;52.376;9.694;2023-08-07T19:49:37;15.50;99.90
6484;DHT22;3275;52.376;9.694;2023-08-07T19:52:05;15.40;99.90
6484;DHT22;3275;52.376;9.694;2023-08-07T19:54:33;15.40;99.90
6484;DHT22;3275;52.376;9.694;2023-08-07T19:56:59;15.40;99.90
6484;DHT22;3275;52.376;9.694;2023-08-07T19:59:26;15.30;99.90
6484;DHT22;3275;52.376;9.694;2023-08-07T20:01:53;15.40;99.90
6484;DHT22;3275;52.376;9.694;2023-08-07T20:04:20;15.40;99.90
6484;DHT22;3275;52.376;9.694;2023-08-07T20:06:46;15.30;99.90
6484;DHT22;3275;52.376;9.694;2023-08-07T20:09:13;15.20;99.90
6484;DHT22;3275;52.376;9.694;2023-08-07T20:11:41;15.10;99.90
6484;DHT22;3275;52.376;9.694;2023-08-07T20:14:08;15.10;99.90
6484;DHT22;3275;52.376;9.694;2023-08-07T20:16:34;15.20;99.90
6484;DHT22;3275;52.376;9.694;2023-08-07T20:19:01;15.20;99.90
6484;DHT22;3275;52.376;9.694;2023-08-07T20:21:28;15.20;99.90
6484;DHT22;3275;52.376;9.694;2023-08-07T20:23:55;15.20;99.90
6484;DHT22;3275;52.376;9.694;2023-08-07T20:26:22;15.20;99.90
6484;DHT22;3275;52.376;9.694;2023-08-07T20:28:51;15.20;99.90
6484;DHT22;3275;52.376;9.694;2023-08-07T20:31:17;15.20;99.90
6484;DHT22;3275;52.376;9.694;2023-08-07T20:33:44;15.20;99.90
6484;DHT22;3275;52.376;9.694;2023-08-07T20:36:11;15.20;99.90
6484;DHT22;3275;52.376;9.694;2023-08-07T20:38:37;15.20;99.90
6484;DHT22;3275;52.376;9.694;2023-08-07T20:41:04;15.20;99.90
6484;DHT22;3275;52.376;9.694;2023-08-07T20:43:31;15.10;99.90
6484;DHT22;3275;52.376;9.694;2023-08-07T20:45:59;15.10;99.90
6484;DHT22;3275;52.376;9.694;2023-08-07T20:48:26;15.10;99.90
6484;DHT22;3275;52.376;9.694;2023-08-07T20:50:53;15.30;99.90
6484;DHT22;3275;52.376;9.694;2023-08-07T20:53:19;15.20;99.90
6484;DHT22;3275;52.376;9.694;2023-08-07T20:55:47;15.10;99.90
6484;DHT22;3275;52.376;9.694;2023-08-07T20:58:14;15.10;99.90
6484;DHT22;3275;52.376;9.694;2023-08-07T21:00:40;15.10;99.90
6484;DHT22;3275;52.376;9.694;2023-08-07T21:03:08;15.10;99.90
6484;DHT22;3275;52.376;9.694;2023-08-07T21:05:35;15.10;99.90
6484;DHT22;3275;52.376;9.694;2023-08-07T21:08:02;15.00;99.90
6484;DHT22;3275;52.376;9.694;2023-08-07T21:10:29;15.10;99.90
6484;DHT22;3275;52.376;9.694;2023-08-07T21:12:55;15.10;99.90
6484;DHT22;3275;52.376;9.694;2023-08-07T21:15:23;15.20;99.90
6484;DHT22;3275;52.376;9.694;2023-08-07T21:17:49;15.20;99.90
6484;DHT22;3275;52.376;9.694;2023-08-07T21:20:18;15.20;99.90
6484;DHT22;3275;52.376;9.694;2023-08-07T21:22:44;15.20;99.90
6484;DHT22;3275;52.376;9.694;2023-08-07T21:25:12;15.20;99.90
6484;DHT22;3275;52.376;9.694;2023-08-07T21:27:38;15.10;99.90
6484;DHT22;3275;52.376;9.694;2023-08-07T21:30:06;15.00;99.90
6484;DHT22;3275;52.376;9.694;2023-08-07T21:32:33;15.00;99.90
6484;DHT22;3275;52.376;9.694;2023-08-07T21:35:00;15.10;99.90
6484;DHT22;3275;52.376;9.694;2023-08-07T21:37:31;15.10;99.90
6484;DHT22;3275;52.376;9.694;2023-08-07T21:39:59;15.10;99.90
6484;DHT22;3275;52.376;9.694;2023-08-07T21:42:26;15.00;99.90
6484;DHT22;3275;52.376;9.694;2023-08-07T21:44:54;15.00;99.90
6484;DHT22;3275;52.376;9.694;2023-08-07T21:47:20;14.90;99.90
6484;DHT22;3275;52.376;9.694;2023-08-07T21:49:47;14.90;99.90
6484;DHT22;3275;52.376;9.694;2023-08-07T21:52:14;14.90;99.90
6484;DHT22;3275;52.376;9.694;2023-08-07T21:54:42;14.80;99.90
6484;DHT22;3275;52.376;9.694;2023-08-07T21:57:08;14.80;99.90
6484;DHT22;3275;52.376;9.694;2023-08-07T21:59:35;14.70;99.90
6484;DHT22;3275;52.376;9.694;2023-08-07T22:02:03;14.70;99.90
6484;DHT22;3275;52.376;9.694;2023-08-07T22:04:30;14.60;99.90
6484;DHT22;3275;52.376;9.694;2023-08-07T22:06:56;14.70;99.90
6484;DHT22;3275;52.376;9.694;2023-08-07T22:09:23;14.70;99.90
6484;DHT22;3275;52.376;9.694;2023-08-07T22:11:51;14.70;99.90
6484;DHT22;3275;52.376;9.694;2023-08-07T22:14:18;14.70;99.90
6484;DHT22;3275;52.376;9.694;2023-08-07T22:16:44;14.80;99.90
6484;DHT22;3275;52.376;9.694;2023-08-07T22:19:12;14.70;99.90
6484;DHT22;3275;52.376;9.694;2023-08-07T22:21:39;14.60;99.90
6484;DHT22;3275;52.376;9.694;2023-08-07T22:24:07;14.70;99.90
6484;DHT22;3275;52.376;9.694;2023-08-07T22:26:34;14.70;99.90
